Time;durP1;ratioP1;P1;durP2;ratioP2;P2;SDS_P1;SDS_P2;PMS_P1;PMS_P2;Temp;Humidity;BMP_temperature;BMP_pressure;BME280_temperature;BME280_humidity;BME280_pressure;Samples;Min_cycle;Max_cycle;Signal;HPM_P1;HPM_P2
2022/11/14 00:01:25;;;;;;;26.65;14.10;;;2.90;99.90;;;;;;5027530;28;20509;-75
2022/11/14 00:03:51;;;;;;;32.75;14.57;;;2.90;99.90;;;;;;5027296;28;20034;-75
2022/11/14 00:06:17;;;;;;;24.65;13.13;;;2.90;99.90;;;;;;5034017;28;20029;-75
2022/11/14 00:08:42;;;;;;;28.45;14.27;;;2.90;99.90;;;;;;5030678;28;20029;-74
2022/11/14 00:11:13;;;;;;;26.10;14.23;;;2.90;99.90;;;;;;5028238;28;20079;-75
2022/11/14 00:13:42;;;;;;;21.77;12.95;;;2.90;99.90;;;;;;5027608;28;20025;-74
2022/11/14 00:16:08;;;;;;;23.50;13.13;;;2.80;99.90;;;;;;5029654;28;20028;-74
2022/11/14 00:18:39;;;;;;;22.88;13.20;;;2.90;99.90;;;;;;5026136;28;20029;-74
2022/11/14 00:21:05;;;;;;;26.33;14.45;;;2.90;99.90;;;;;;5021924;28;20025;-74
2022/11/14 00:23:37;;;;;;;23.80;14.27;;;2.80;99.90;;;;;;5025791;28;20037;-75
2022/11/14 00:26:02;;;;;;;27.60;14.70;;;2.80;99.90;;;;;;5025079;28;20479;-74
2022/11/14 00:28:31;;;;;;;30.52;16.63;;;2.80;99.90;;;;;;5030216;28;20025;-74
2022/11/14 00:31:00;;;;;;;29.98;15.60;;;2.80;99.90;;;;;;5024502;28;20048;-74
2022/11/14 00:33:35;;;;;;;25.27;14.77;;;2.90;99.90;;;;;;5029013;28;20030;-74
2022/11/14 00:36:04;;;;;;;27.77;14.82;;;2.80;99.90;;;;;;5023241;28;20061;-74
2022/11/14 00:38:29;;;;;;;22.65;12.70;;;2.80;99.90;;;;;;5036775;28;20446;-74
2022/11/14 00:41:01;;;;;;;27.88;14.85;;;2.80;99.90;;;;;;5025377;28;20764;-74
2022/11/14 00:43:33;;;;;;;24.90;14.90;;;2.80;99.90;;;;;;5024763;28;20038;-75
2022/11/14 00:46:04;;;;;;;26.13;14.70;;;2.80;99.90;;;;;;5025292;28;20028;-74
2022/11/14 00:48:33;;;;;;;23.77;13.60;;;2.80;99.90;;;;;;5028861;28;20099;-75
2022/11/14 00:50:58;;;;;;;25.77;14.15;;;2.80;99.90;;;;;;5030034;28;20466;-74
2022/11/14 00:53:24;;;;;;;21.35;13.20;;;2.70;99.90;;;;;;5024647;28;20022;-75
2022/11/14 00:55:50;;;;;;;21.90;13.23;;;2.70;99.90;;;;;;5022982;28;20029;-74
2022/11/14 00:58:15;;;;;;;22.50;13.00;;;2.70;99.90;;;;;;5030507;28;20033;-75
2022/11/14 01:00:44;;;;;;;24.27;12.63;;;2.70;99.90;;;;;;5027938;28;20025;-75
2022/11/14 01:03:09;;;;;;;22.88;12.23;;;2.70;99.90;;;;;;5024999;28;20073;-75
2022/11/14 01:05:47;;;;;;;21.63;11.73;;;2.70;99.90;;;;;;5020467;28;20057;-75
2022/11/14 01:08:14;;;;;;;22.50;12.25;;;2.70;99.90;;;;;;5026417;28;20411;-75
2022/11/14 01:10:50;;;;;;;20.65;11.65;;;2.70;99.90;;;;;;5014638;28;20029;-75
2022/11/14 01:13:22;;;;;;;21.17;11.50;;;2.70;99.90;;;;;;5030182;28;20025;-75
2022/11/14 01:15:51;;;;;;;21.42;12.13;;;2.70;99.90;;;;;;5028735;28;20025;-75
2022/11/14 01:18:20;;;;;;;20.17;10.93;;;2.70;99.90;;;;;;5025556;28;20022;-75
2022/11/14 01:20:52;;;;;;;19.95;10.90;;;2.70;99.90;;;;;;5024265;28;20079;-75
2022/11/14 01:23:18;;;;;;;19.85;11.00;;;2.70;99.90;;;;;;5027779;28;20037;-75
2022/11/14 01:25:44;;;;;;;20.17;10.50;;;2.60;99.90;;;;;;5025598;28;20548;-75
2022/11/14 01:28:16;;;;;;;19.50;10.38;;;2.60;99.90;;;;;;5030686;28;20017;-75
2022/11/14 01:30:43;;;;;;;20.30;11.65;;;2.60;99.90;;;;;;5028457;28;20037;-75
2022/11/14 01:33:14;;;;;;;17.45;9.90;;;2.60;99.90;;;;;;5033975;28;20025;-75
2022/11/14 01:35:40;;;;;;;19.65;10.48;;;2.60;99.90;;;;;;5033377;28;20504;-76
2022/11/14 01:38:05;;;;;;;17.30;9.73;;;2.60;99.90;;;;;;5032561;28;20064;-75
2022/11/14 01:40:41;;;;;;;18.02;11.15;;;2.50;99.90;;;;;;5032159;28;20116;-75
2022/11/14 01:43:10;;;;;;;19.52;11.10;;;2.50;99.90;;;;;;5029370;28;20498;-75
2022/11/14 01:46:06;;;;;;;19.20;10.68;;;2.50;99.90;;;;;;5013994;28;20372;-75
2022/11/14 01:48:51;;;;;;;18.52;10.00;;;2.50;99.90;;;;;;5013704;28;20028;-74
2022/11/14 01:51:41;;;;;;;19.63;11.85;;;2.50;99.90;;;;;;5015041;28;20097;-76
2022/11/14 01:54:35;;;;;;;18.15;11.07;;;2.50;99.90;;;;;;5019241;28;20025;-77
2022/11/14 01:57:03;;;;;;;19.88;10.60;;;2.40;99.90;;;;;;5033394;28;20498;-76
2022/11/14 01:59:40;;;;;;;24.30;11.85;;;2.50;99.90;;;;;;5018989;28;20037;-76
2022/11/14 02:02:12;;;;;;;19.80;10.90;;;2.50;99.90;;;;;;5019099;28;20082;-77
2022/11/14 02:04:42;;;;;;;19.73;10.63;;;2.40;99.90;;;;;;5033594;28;20014;-76
2022/11/14 02:07:09;;;;;;;20.98;11.52;;;2.50;99.90;;;;;;5027715;28;20052;-76
2022/11/14 02:09:37;;;;;;;19.35;11.73;;;2.40;99.90;;;;;;5022722;28;20022;-75
2022/11/14 02:12:07;;;;;;;19.60;10.65;;;2.50;99.90;;;;;;5025631;28;20036;-75
2022/11/14 02:14:34;;;;;;;20.85;11.60;;;2.40;99.90;;;;;;5032235;28;20077;-75
2022/11/14 02:17:03;;;;;;;19.27;11.40;;;2.50;99.90;;;;;;5034465;28;20033;-75
2022/11/14 02:19:49;;;;;;;23.15;11.70;;;2.40;99.90;;;;;;5034453;28;20034;-75
2022/11/14 02:22:14;;;;;;;20.60;13.27;;;2.40;99.90;;;;;;5034869;28;20022;-75
2022/11/14 02:24:43;;;;;;;22.02;12.27;;;2.40;99.90;;;;;;5034310;28;20040;-76
2022/11/14 02:27:10;;;;;;;20.60;12.07;;;2.40;99.90;;;;;;5032766;28;20079;-77
2022/11/14 02:29:36;;;;;;;21.98;12.73;;;2.30;99.90;;;;;;5029810;28;20475;-76
2022/11/14 02:32:05;;;;;;;20.48;12.27;;;2.40;99.90;;;;;;5034088;28;20041;-77
2022/11/14 02:34:31;;;;;;;23.15;12.75;;;2.40;99.90;;;;;;5033360;28;20648;-77
2022/11/14 02:36:57;;;;;;;24.67;13.90;;;2.40;99.90;;;;;;5015251;28;20164;-77
2022/11/14 02:39:23;;;;;;;23.02;12.32;;;2.40;99.90;;;;;;5013252;28;20057;-77
2022/11/14 02:41:52;;;;;;;23.20;12.88;;;2.30;99.90;;;;;;5014443;28;20066;-77
2022/11/14 02:44:18;;;;;;;22.67;13.30;;;2.30;99.90;;;;;;5014412;28;20120;-77
2022/11/14 02:46:44;;;;;;;22.02;13.02;;;2.30;99.90;;;;;;5015852;28;20021;-75
2022/11/14 02:49:09;;;;;;;18.65;11.05;;;2.30;99.90;;;;;;5034985;28;20029;-76
2022/11/14 02:51:39;;;;;;;23.38;13.10;;;2.30;99.90;;;;;;5029723;28;20077;-75
2022/11/14 02:54:05;;;;;;;25.48;15.18;;;2.30;99.90;;;;;;5021694;28;20512;-76
2022/11/14 02:56:30;;;;;;;23.52;13.45;;;2.30;99.90;;;;;;5036046;28;20025;-75
2022/11/14 02:58:56;;;;;;;18.02;10.85;;;2.40;99.90;;;;;;5035870;28;20040;-75
2022/11/14 03:01:21;;;;;;;19.70;10.80;;;2.30;99.90;;;;;;5037732;28;20025;-75
2022/11/14 03:03:59;;;;;;;23.45;13.13;;;2.40;99.90;;;;;;5037635;28;20022;-75
2022/11/14 03:06:28;;;;;;;20.90;12.27;;;2.40;99.90;;;;;;5037531;28;20030;-75
2022/11/14 03:08:56;;;;;;;23.65;13.70;;;2.40;99.90;;;;;;5036545;28;20026;-75
2022/11/14 03:11:28;;;;;;;22.58;12.77;;;2.40;99.90;;;;;;5037588;28;20033;-76
2022/11/14 03:13:54;;;;;;;20.73;12.15;;;2.40;99.90;;;;;;5036149;28;20490;-74
2022/11/14 03:16:22;;;;;;;22.67;12.75;;;2.40;99.90;;;;;;5037352;28;20029;-74
2022/11/14 03:18:48;;;;;;;21.20;12.50;;;2.40;99.90;;;;;;5037461;28;20111;-76
2022/11/14 03:21:19;;;;;;;19.65;11.98;;;2.40;99.90;;;;;;5035290;28;20029;-74
2022/11/14 03:23:51;;;;;;;18.15;11.18;;;2.40;99.90;;;;;;5034945;28;20055;-75
2022/11/14 03:26:17;;;;;;;20.02;10.98;;;2.50;99.90;;;;;;5036662;28;20435;-75
2022/11/14 03:28:46;;;;;;;17.55;10.73;;;2.50;99.90;;;;;;5036098;28;20112;-75
2022/11/14 03:31:13;;;;;;;17.85;10.93;;;2.50;99.90;;;;;;5037095;28;20490;-77
2022/11/14 03:33:39;;;;;;;17.42;9.18;;;2.50;99.90;;;;;;5037191;28;20068;-76
2022/11/14 03:36:05;;;;;;;19.20;10.75;;;2.50;99.90;;;;;;5035556;28;20014;-76
2022/11/14 03:38:34;;;;;;;11.82;7.10;;;2.50;99.90;;;;;;5037067;28;20053;-77
2022/11/14 03:41:05;;;;;;;11.55;6.47;;;2.60;99.90;;;;;;5030419;28;20041;-75
2022/11/14 03:43:37;;;;;;;11.27;6.28;;;2.70;99.90;;;;;;5014877;28;20076;-76
2022/11/14 03:46:03;;;;;;;12.32;6.80;;;2.80;99.90;;;;;;5014963;28;20437;-77
2022/11/14 03:48:32;;;;;;;11.10;6.22;;;3.00;99.90;;;;;;5017674;28;20522;-77
2022/11/14 03:51:06;;;;;;;10.40;6.18;;;3.10;99.90;;;;;;5017527;28;20076;-76
2022/11/14 03:53:38;;;;;;;10.13;6.13;;;3.20;99.90;;;;;;5017995;28;20022;-77
2022/11/14 03:56:07;;;;;;;13.10;6.25;;;3.30;99.90;;;;;;5016554;28;20517;-76
2022/11/14 03:58:32;;;;;;;11.52;6.85;;;3.50;99.90;;;;;;5017487;28;20029;-76
2022/11/14 04:00:58;;;;;;;15.10;6.72;;;3.60;99.90;;;;;;5016976;28;20026;-77
2022/11/14 04:03:24;;;;;;;11.25;6.78;;;3.80;99.90;;;;;;5017176;28;20395;-77
2022/11/14 04:05:50;;;;;;;15.20;7.35;;;3.90;99.90;;;;;;5016995;28;20058;-77
2022/11/14 04:08:16;;;;;;;11.20;6.95;;;4.00;99.90;;;;;;5016859;28;20423;-76
2022/11/14 04:10:48;;;;;;;11.82;7.10;;;4.10;99.90;;;;;;5016885;28;20028;-77
2022/11/14 04:13:17;;;;;;;11.45;6.30;;;4.20;99.90;;;;;;5015582;28;20092;-76
2022/11/14 04:16:01;;;;;;;9.77;5.93;;;4.20;99.90;;;;;;5016561;28;20463;-76
2022/11/14 04:18:27;;;;;;;11.98;7.05;;;4.30;99.90;;;;;;5016293;28;20029;-77
2022/11/14 04:20:55;;;;;;;12.93;7.15;;;4.30;99.90;;;;;;5014827;28;20093;-77
2022/11/14 04:23:27;;;;;;;12.18;6.95;;;4.40;99.90;;;;;;5015136;28;20076;-76
2022/11/14 04:25:53;;;;;;;13.80;7.55;;;4.40;99.90;;;;;;5015975;28;20057;-75
2022/11/14 04:28:18;;;;;;;11.48;6.68;;;4.40;99.90;;;;;;5015699;28;20066;-76
2022/11/14 04:30:47;;;;;;;12.05;6.63;;;4.40;99.90;;;;;;5014982;28;20061;-76
2022/11/14 04:33:13;;;;;;;13.30;7.35;;;4.50;99.90;;;;;;5016022;28;20029;-75
2022/11/14 04:35:38;;;;;;;13.68;8.07;;;4.50;99.90;;;;;;5014831;28;20038;-76
2022/11/14 04:38:04;;;;;;;12.63;7.75;;;4.50;99.90;;;;;;5015569;28;20112;-76
2022/11/14 04:40:32;;;;;;;13.20;8.48;;;4.50;99.90;;;;;;5015660;28;20049;-76
2022/11/14 04:42:58;;;;;;;18.75;9.77;;;4.50;99.90;;;;;;5016277;28;20026;-76
2022/11/14 04:45:27;;;;;;;15.25;10.77;;;4.40;99.90;;;;;;5016169;28;20030;-76
2022/11/14 04:47:58;;;;;;;15.60;9.48;;;4.20;99.90;;;;;;5014911;28;20030;-77
2022/11/14 04:50:33;;;;;;;13.45;8.57;;;4.20;99.90;;;;;;5014937;28;20029;-77
2022/11/14 04:52:58;;;;;;;14.55;9.20;;;4.00;99.90;;;;;;5014807;28;20024;-77
2022/11/14 04:55:27;;;;;;;13.93;8.35;;;3.90;99.90;;;;;;5015064;28;20235;-77
2022/11/14 04:58:04;;;;;;;17.80;9.75;;;3.90;99.90;;;;;;5015985;28;20521;-77
2022/11/14 05:00:33;;;;;;;15.30;8.82;;;3.70;99.90;;;;;;5014292;28;20483;-76
2022/11/14 05:03:05;;;;;;;16.00;10.32;;;3.70;99.90;;;;;;5015400;28;20471;-76
2022/11/14 05:05:33;;;;;;;18.40;9.52;;;3.60;99.90;;;;;;5014672;28;20030;-74
2022/11/14 05:08:02;;;;;;;15.07;8.60;;;3.60;99.90;;;;;;5026716;28;20516;-76
2022/11/14 05:10:31;;;;;;;17.63;10.15;;;3.70;99.90;;;;;;5033679;28;20032;-76
2022/11/14 05:13:02;;;;;;;16.52;9.65;;;3.70;99.90;;;;;;5025457;28;20033;-76
2022/11/14 05:15:37;;;;;;;17.30;10.30;;;3.80;99.90;;;;;;5030511;28;20037;-76
2022/11/14 05:18:15;;;;;;;16.77;9.13;;;3.80;99.90;;;;;;5023369;28;20101;-75
2022/11/14 05:20:46;;;;;;;14.30;8.80;;;3.80;99.90;;;;;;5029190;28;20029;-76
2022/11/14 05:23:20;;;;;;;16.13;10.07;;;3.80;99.90;;;;;;5020446;28;20036;-76
2022/11/14 05:25:46;;;;;;;;;;;3.80;99.90;;;;;;5021989;28;20444;-74
2022/11/14 05:28:12;;;;;;;12.52;8.05;;;3.70;99.90;;;;;;5029473;28;19905;-76
2022/11/14 05:30:38;;;;;;;13.30;8.65;;;3.70;99.90;;;;;;5013761;28;20024;-75
2022/11/14 05:33:03;;;;;;;15.02;8.95;;;3.70;99.90;;;;;;5030490;28;20025;-76
2022/11/14 05:35:35;;;;;;;12.25;7.72;;;3.60;99.90;;;;;;5033464;28;20037;-76
2022/11/14 05:38:01;;;;;;;14.32;8.35;;;3.60;99.90;;;;;;5022520;28;20079;-68
2022/11/14 05:40:32;;;;;;;17.25;8.25;;;3.50;99.90;;;;;;5030627;28;20509;-68
2022/11/14 05:42:58;;;;;;;18.17;9.45;;;3.50;99.90;;;;;;5026257;28;20540;-69
2022/11/14 05:45:29;;;;;;;15.60;9.43;;;3.50;99.90;;;;;;5026220;28;20033;-69
2022/11/14 05:47:55;;;;;;;16.38;8.70;;;3.50;99.90;;;;;;5023215;28;20017;-69
2022/11/14 05:50:30;;;;;;;14.05;8.88;;;3.50;99.90;;;;;;5017988;28;20552;-68
2022/11/14 05:52:59;;;;;;;16.33;9.27;;;3.50;99.90;;;;;;5022975;28;20386;-68
2022/11/14 05:55:30;;;;;;;14.65;9.25;;;3.50;99.90;;;;;;5029062;28;20052;-75
2022/11/14 05:57:59;;;;;;;14.80;8.90;;;3.50;99.90;;;;;;5031224;28;20413;-77
2022/11/14 06:00:26;;;;;;;15.88;10.15;;;3.50;99.90;;;;;;5033085;28;20020;-76
2022/11/14 06:02:53;;;;;;;14.35;9.57;;;3.40;99.90;;;;;;5028797;28;20532;-77
2022/11/14 06:05:22;;;;;;;13.68;8.30;;;3.40;99.90;;;;;;5028595;28;20034;-77
2022/11/14 06:07:57;;;;;;;11.23;7.63;;;3.40;99.90;;;;;;5029354;28;20426;-77
2022/11/14 06:10:23;;;;;;;11.95;7.43;;;3.40;99.90;;;;;;5015389;28;20026;-77
2022/11/14 06:12:49;;;;;;;12.23;7.63;;;3.40;99.90;;;;;;5031921;28;20025;-78
2022/11/14 06:15:24;;;;;;;13.98;8.00;;;3.40;99.90;;;;;;5042953;28;20060;-77
2022/11/14 06:17:54;;;;;;;13.30;8.65;;;3.50;99.90;;;;;;5030638;28;20029;-77
2022/11/14 06:20:20;;;;;;;12.40;7.78;;;3.50;99.90;;;;;;5034044;28;20125;-77
2022/11/14 06:22:46;;;;;;;15.52;8.27;;;3.50;99.90;;;;;;5035021;28;20068;-77
2022/11/14 06:25:12;;;;;;;11.32;7.32;;;3.40;99.90;;;;;;5039182;28;20051;-77
2022/11/14 06:27:37;;;;;;;13.57;7.72;;;3.50;99.90;;;;;;5038085;28;20026;-75
2022/11/14 06:30:03;;;;;;;12.23;7.45;;;3.50;99.90;;;;;;5038062;28;20081;-74
2022/11/14 06:32:29;;;;;;;12.70;7.07;;;3.50;99.90;;;;;;5030597;28;20030;-74
2022/11/14 06:34:54;;;;;;;12.80;7.43;;;3.50;99.90;;;;;;5029886;28;20073;-75
2022/11/14 06:37:20;;;;;;;12.95;7.72;;;3.50;99.90;;;;;;5038460;28;20033;-74
2022/11/14 06:39:46;;;;;;;12.85;7.68;;;3.50;99.90;;;;;;5034693;28;20041;-74
2022/11/14 06:42:11;;;;;;;13.43;8.73;;;3.50;99.90;;;;;;5037798;28;20367;-75
2022/11/14 06:44:37;;;;;;;12.82;7.40;;;3.60;99.90;;;;;;5036318;28;20490;-73
2022/11/14 06:47:03;;;;;;;14.32;7.60;;;3.50;99.90;;;;;;5029436;28;20167;-74
2022/11/14 06:49:37;;;;;;;14.40;8.93;;;3.60;99.90;;;;;;5017634;28;20018;-75
2022/11/14 06:52:03;;;;;;;12.48;8.18;;;3.60;99.90;;;;;;5034979;28;20040;-75
2022/11/14 06:54:29;;;;;;;12.43;7.63;;;3.60;99.90;;;;;;5038208;28;20120;-76
2022/11/14 06:56:57;;;;;;;13.55;7.75;;;3.60;99.90;;;;;;5037156;28;20041;-75
2022/11/14 06:59:23;;;;;;;13.93;8.38;;;3.70;99.90;;;;;;5037753;28;20072;-76
2022/11/14 07:01:48;;;;;;;12.40;7.15;;;3.70;99.90;;;;;;5037888;28;20037;-76
2022/11/14 07:04:17;;;;;;;13.07;7.88;;;3.70;99.90;;;;;;5038778;28;20037;-75
2022/11/14 07:06:42;;;;;;;10.98;7.22;;;3.70;99.90;;;;;;5020616;28;20020;-75
2022/11/14 07:09:09;;;;;;;14.90;8.63;;;3.80;99.90;;;;;;5021118;28;20060;-74
2022/11/14 07:11:35;;;;;;;12.88;7.68;;;3.80;99.90;;;;;;5030802;28;20025;-76
2022/11/14 07:14:02;;;;;;;12.15;7.65;;;3.80;99.90;;;;;;5038146;28;20029;-75
2022/11/14 07:16:35;;;;;;;16.80;8.63;;;3.80;99.90;;;;;;5037118;28;20036;-77
2022/11/14 07:19:05;;;;;;;11.82;7.53;;;3.80;99.90;;;;;;5037629;28;20037;-78
2022/11/14 07:21:38;;;;;;;15.23;7.90;;;3.80;99.90;;;;;;5032377;28;20505;-74
2022/11/14 07:24:04;;;;;;;13.13;8.48;;;3.90;99.90;;;;;;5024423;28;20037;-76
2022/11/14 07:26:30;;;;;;;15.52;9.25;;;3.80;99.90;;;;;;5028274;28;20029;-76
2022/11/14 07:28:56;;;;;;;16.77;8.32;;;3.90;99.90;;;;;;5025690;28;20025;-77
2022/11/14 07:31:21;;;;;;;14.60;8.38;;;3.90;99.90;;;;;;5055611;23;21434;-78
2022/11/14 07:34:07;;;;;;;14.10;8.63;;;3.90;99.90;;;;;;5034785;28;20060;-78
2022/11/14 07:36:32;;;;;;;14.23;8.63;;;3.90;99.90;;;;;;5029872;28;20371;-78
2022/11/14 07:39:01;;;;;;;15.48;9.45;;;4.00;99.90;;;;;;5033831;28;20027;-78
2022/11/14 07:41:26;;;;;;;16.90;8.77;;;4.00;99.90;;;;;;5033194;28;20068;-78
2022/11/14 07:43:58;;;;;;;17.65;9.20;;;4.00;99.90;;;;;;5032918;28;20030;-78
2022/11/14 07:46:23;;;;;;;20.55;10.27;;;4.00;99.90;;;;;;5031787;28;20018;-78
2022/11/14 07:48:55;;;;;;;26.23;10.55;;;4.00;99.90;;;;;;5028303;28;20032;-78
2022/11/14 07:51:21;;;;;;;10.00;5.88;;;4.00;99.90;;;;;;5029704;28;20795;-78
2022/11/14 07:53:53;;;;;;;12.55;4.95;;;4.10;99.90;;;;;;5031313;28;20022;-78
2022/11/14 07:56:25;;;;;;;6.32;2.58;;;4.60;99.90;;;;;;5026815;28;20025;-78
2022/11/14 07:58:54;;;;;;;4.07;2.13;;;5.20;99.90;;;;;;5027909;28;20071;-78
2022/11/14 08:01:26;;;;;;;5.63;2.17;;;5.50;99.90;;;;;;5027500;28;20088;-78
2022/11/14 08:04:03;;;;;;;3.17;1.80;;;6.10;99.90;;;;;;5027608;28;20022;-78
2022/11/14 08:06:32;;;;;;;2.83;1.50;;;6.50;99.90;;;;;;5022833;28;20032;-78
2022/11/14 08:08:58;;;;;;;4.38;1.65;;;6.80;99.90;;;;;;5028228;28;20032;-79
2022/11/14 08:11:48;;;;;;;4.30;1.30;;;7.00;99.90;;;;;;5030700;28;20021;-78
2022/11/14 08:14:15;;;;;;;4.00;1.45;;;7.10;99.90;;;;;;5025196;28;20394;-78
2022/11/14 08:16:43;;;;;;;2.85;1.15;;;7.20;99.90;;;;;;5025333;28;20379;-78
2022/11/14 08:19:12;;;;;;;3.33;1.40;;;7.30;99.90;;;;;;5027037;28;20033;-79
2022/11/14 08:21:38;;;;;;;3.85;1.55;;;7.40;99.90;;;;;;5028127;28;20025;-79
2022/11/14 08:24:09;;;;;;;2.03;1.25;;;7.40;99.90;;;;;;5023526;28;20505;-78
2022/11/14 08:26:41;;;;;;;1.70;1.00;;;7.50;99.90;;;;;;5027179;28;20071;-79
2022/11/14 08:29:13;;;;;;;3.60;1.23;;;7.50;99.90;;;;;;5024852;28;20026;-79
2022/11/14 08:31:41;;;;;;;4.55;1.50;;;7.60;99.90;;;;;;5029705;28;20033;-78
2022/11/14 08:34:08;;;;;;;2.03;1.42;;;7.70;99.90;;;;;;5021826;28;20037;-78
2022/11/14 08:36:34;;;;;;;3.13;1.75;;;7.70;99.90;;;;;;5025722;28;20036;-79
2022/11/14 08:39:05;;;;;;;4.18;1.25;;;7.60;99.90;;;;;;5031114;28;20045;-79
2022/11/14 08:41:37;;;;;;;4.38;1.40;;;7.70;99.90;;;;;;5030930;28;20036;-78
2022/11/14 08:44:03;;;;;;;4.00;1.52;;;7.70;99.90;;;;;;5028406;28;20056;-78
2022/11/14 08:46:32;;;;;;;1.95;1.05;;;7.70;99.90;;;;;;5012438;28;20112;-78
2022/11/14 08:48:57;;;;;;;2.28;0.82;;;7.70;99.90;;;;;;5029258;28;20034;-77
2022/11/14 08:51:23;;;;;;;2.75;1.50;;;7.80;99.90;;;;;;5029610;28;20397;-78
2022/11/14 08:53:51;;;;;;;3.92;2.15;;;7.80;99.90;;;;;;5027128;28;20022;-77
2022/11/14 08:56:19;;;;;;;3.35;1.48;;;7.80;99.90;;;;;;5026348;28;20033;-77
2022/11/14 08:58:45;;;;;;;2.88;1.80;;;7.80;99.90;;;;;;5026773;28;20044;-77
2022/11/14 09:01:11;;;;;;;2.13;1.20;;;7.80;99.90;;;;;;5027243;28;20021;-77
2022/11/14 09:03:36;;;;;;;4.32;1.48;;;7.80;99.90;;;;;;5028020;28;20514;-78
2022/11/14 09:06:11;;;;;;;4.50;1.65;;;7.90;99.90;;;;;;5027829;28;20307;-77
2022/11/14 09:08:37;;;;;;;1.73;1.13;;;7.90;99.90;;;;;;5030778;28;20135;-77
2022/11/14 09:11:05;;;;;;;2.00;1.40;;;8.00;99.90;;;;;;5030932;28;20076;-77
2022/11/14 09:13:32;;;;;;;1.98;1.20;;;8.10;99.90;;;;;;5026076;28;20100;-78
2022/11/14 09:16:04;;;;;;;1.90;1.05;;;8.10;99.90;;;;;;5024827;28;20025;-78
2022/11/14 09:18:30;;;;;;;2.85;0.77;;;8.20;99.90;;;;;;5027855;28;20519;-78
2022/11/14 09:21:11;;;;;;;1.77;1.00;;;8.30;99.90;;;;;;5031639;28;20164;-78
2022/11/14 09:23:37;;;;;;;1.60;1.00;;;8.40;99.90;;;;;;5027151;28;20033;-78
2022/11/14 09:26:04;;;;;;;1.55;1.10;;;8.40;99.90;;;;;;5025830;28;20061;-79
2022/11/14 09:28:36;;;;;;;1.92;1.25;;;8.50;99.90;;;;;;5034498;28;20024;-78
2022/11/14 09:31:10;;;;;;;2.50;1.00;;;8.50;99.90;;;;;;5026341;28;20025;-79
2022/11/14 09:33:41;;;;;;;3.08;0.93;;;8.50;99.90;;;;;;5029420;28;20040;-78
2022/11/14 09:36:14;;;;;;;1.58;0.95;;;8.60;99.90;;;;;;5035698;28;20033;-78
2022/11/14 09:38:49;;;;;;;2.35;1.17;;;8.60;99.90;;;;;;5031354;28;20182;-78
2022/11/14 09:41:25;;;;;;;1.40;0.80;;;8.70;99.90;;;;;;5021798;28;20032;-78
2022/11/14 09:44:31;;;;;;;1.48;0.93;;;8.70;99.90;;;;;;5029900;28;20100;-78
2022/11/14 09:47:11;;;;;;;1.25;0.80;;;8.80;99.90;;;;;;5031482;28;20057;-78
2022/11/14 09:49:45;;;;;;;2.03;1.10;;;8.90;99.90;;;;;;5042256;28;20055;-79
2022/11/14 09:52:10;;;;;;;;;;;9.00;99.90;;;;;;5031185;28;20113;-79
2022/11/14 09:55:01;;;;;;;1.85;1.05;;;9.00;99.90;;;;;;5027386;28;19940;-78
2022/11/14 09:57:28;;;;;;;2.75;1.10;;;9.10;99.90;;;;;;5031356;28;20021;-79
2022/11/14 09:59:54;;;;;;;2.33;1.02;;;9.20;99.90;;;;;;5028349;28;20492;-79
2022/11/14 10:03:05;;;;;;;4.35;1.20;;;9.30;99.90;;;;;;5026030;28;20032;-79
2022/11/14 10:05:49;;;;;;;2.08;1.00;;;9.30;99.90;;;;;;5013946;28;20124;-79
2022/11/14 10:08:21;;;;;;;1.58;0.82;;;9.40;99.90;;;;;;5031148;28;20124;-78
2022/11/14 10:11:28;;;;;;;2.72;0.98;;;9.40;99.90;;;;;;5033565;28;20133;-80
2022/11/14 10:14:00;;;;;;;1.60;0.75;;;9.40;99.90;;;;;;5025029;28;20494;-79
2022/11/14 10:16:47;;;;;;;4.35;1.00;;;9.40;99.90;;;;;;5029977;28;20109;-78
2022/11/14 10:19:40;;;;;;;3.55;0.75;;;9.50;99.90;;;;;;5031110;28;20130;-80
2022/11/14 10:22:40;;;;;;;0.97;0.77;;;9.50;99.90;;;;;;5029283;28;20033;-78
2022/11/14 10:25:39;;;;;;;3.22;0.90;;;9.40;99.90;;;;;;5029461;28;20381;-79
2022/11/14 10:28:08;;;;;;;2.20;1.05;;;9.50;99.90;;;;;;5030447;28;20072;-79
2022/11/14 10:30:40;;;;;;;1.58;0.95;;;9.50;99.90;;;;;;5029922;28;20034;-79
2022/11/14 10:33:43;;;;;;;2.42;0.98;;;9.50;99.90;;;;;;5028699;28;20284;-78
2022/11/14 10:36:24;;;;;;;1.75;0.85;;;9.50;99.90;;;;;;5029794;28;20033;-79
2022/11/14 10:39:05;;;;;;;3.00;1.15;;;9.50;99.90;;;;;;5020667;28;20033;-79
2022/11/14 10:41:32;;;;;;;1.85;1.25;;;9.60;99.90;;;;;;5028850;28;20025;-79
2022/11/14 10:43:58;;;;;;;1.13;0.80;;;9.60;99.90;;;;;;5028959;28;20034;-79
2022/11/14 10:46:38;;;;;;;1.70;1.05;;;9.60;99.90;;;;;;5028505;28;20571;-79
2022/11/14 10:49:30;;;;;;;1.98;1.08;;;9.70;99.90;;;;;;5026087;28;20030;-79
2022/11/14 10:52:00;;;;;;;2.38;1.00;;;9.80;99.90;;;;;;5031772;28;20034;-79
2022/11/14 10:54:41;;;;;;;1.83;1.10;;;9.80;99.90;;;;;;5030634;28;20036;-78
2022/11/14 10:57:18;;;;;;;3.42;0.95;;;9.90;99.90;;;;;;5030994;28;20394;-79
2022/11/14 10:59:44;;;;;;;2.55;1.10;;;9.90;99.90;;;;;;5024466;28;20025;-79
2022/11/14 11:02:21;;;;;;;2.45;1.13;;;10.00;99.90;;;;;;5029562;28;20026;-77
2022/11/14 11:04:47;;;;;;;1.98;1.08;;;10.00;99.90;;;;;;5029944;28;20049;-79
2022/11/14 11:13:32;;;;;;;5.13;1.90;;;9.90;99.90;;;;;;5030846;28;20132;-78
2022/11/14 11:16:00;;;;;;;2.50;1.38;;;9.90;99.90;;;;;;5029430;28;20037;-78
2022/11/14 11:18:33;;;;;;;2.15;1.20;;;9.90;99.90;;;;;;5032601;28;20503;-78
2022/11/14 11:21:14;;;;;;;3.30;1.75;;;9.90;99.90;;;;;;5034400;28;20059;-78
2022/11/14 11:23:55;;;;;;;3.28;1.52;;;9.90;99.90;;;;;;5027330;28;20120;-78
2022/11/14 11:26:31;;;;;;;1.75;1.25;;;9.90;99.90;;;;;;5029036;28;20033;-78
2022/11/14 11:29:11;;;;;;;2.83;1.42;;;9.90;99.90;;;;;;5035490;28;20021;-78
2022/11/14 11:31:54;;;;;;;5.60;1.67;;;9.90;99.90;;;;;;5027043;28;20026;-79
2022/11/14 11:34:29;;;;;;;2.95;1.20;;;9.90;99.90;;;;;;5031198;28;20037;-79
2022/11/14 11:37:18;;;;;;;2.15;1.10;;;9.90;99.90;;;;;;5029030;28;20033;-78
2022/11/14 11:39:49;;;;;;;2.03;1.50;;;9.90;99.90;;;;;;5028428;28;20450;-78
2022/11/14 11:43:06;;;;;;;3.15;1.50;;;9.90;99.90;;;;;;5030830;28;20040;-79
2022/11/14 11:45:33;;;;;;;3.00;1.33;;;9.90;99.90;;;;;;5007042;28;20049;-78
2022/11/14 11:48:13;;;;;;;2.15;1.23;;;10.00;99.90;;;;;;5027638;28;20446;-79
2022/11/14 11:50:51;;;;;;;5.00;1.60;;;10.00;99.90;;;;;;5027530;28;20439;-79
2022/11/14 11:53:21;;;;;;;4.20;1.90;;;10.00;99.90;;;;;;5032340;28;20040;-79
2022/11/14 11:56:01;;;;;;;2.92;1.67;;;10.00;99.90;;;;;;5019977;28;20444;-80
2022/11/14 11:58:55;;;;;;;4.18;1.67;;;10.00;99.90;;;;;;5033603;28;20048;-77
2022/11/14 12:01:21;;;;;;;2.97;1.80;;;10.10;99.90;;;;;;5027703;28;20025;-78
2022/11/14 12:03:51;;;;;;;2.78;1.67;;;10.10;99.90;;;;;;5018462;28;20040;-78
2022/11/14 12:06:26;;;;;;;3.80;1.67;;;10.10;99.90;;;;;;5028303;28;20044;-76
2022/11/14 12:09:10;;;;;;;3.85;1.30;;;10.20;99.90;;;;;;5027375;28;20026;-78
2022/11/14 12:11:40;;;;;;;3.50;1.80;;;10.20;99.90;;;;;;5028365;28;20026;-78
2022/11/14 12:14:33;;;;;;;2.38;1.73;;;10.20;99.90;;;;;;5025385;28;20095;-78
2022/11/14 12:17:23;;;;;;;2.67;1.70;;;10.30;99.90;;;;;;5040321;28;20054;-78
2022/11/14 12:20:26;;;;;;;2.47;1.45;;;10.40;99.90;;;;;;5028267;28;20025;-78
2022/11/14 12:23:07;;;;;;;1.98;1.15;;;10.60;99.90;;;;;;5027653;28;20136;-77
2022/11/14 12:25:58;;;;;;;2.53;1.45;;;10.70;99.90;;;;;;5029418;28;20568;-78
2022/11/14 12:29:01;;;;;;;3.47;1.73;;;10.80;99.90;;;;;;5013658;28;20128;-78
2022/11/14 12:31:30;;;;;;;3.17;1.45;;;10.90;99.90;;;;;;5027096;28;20033;-78
2022/11/14 12:34:31;;;;;;;3.70;1.42;;;10.90;99.90;;;;;;5027973;28;21699;-78
2022/11/14 12:36:57;;;;;;;4.20;1.67;;;11.00;99.90;;;;;;5017377;28;20495;-78
2022/11/14 12:39:28;;;;;;;2.95;1.65;;;11.00;99.90;;;;;;5021772;28;20255;-77
2022/11/14 12:42:13;;;;;;;2.92;1.52;;;11.00;99.90;;;;;;5026224;28;20398;-77
2022/11/14 12:44:39;;;;;;;2.67;1.48;;;11.00;99.90;;;;;;5035926;28;20416;-78
2022/11/14 12:47:05;;;;;;;3.28;1.67;;;11.00;99.90;;;;;;5033032;28;20144;-78
2022/11/14 12:49:51;;;;;;;5.55;2.10;;;11.00;99.90;;;;;;5030278;28;20029;-78
2022/11/14 12:52:38;;;;;;;3.88;1.70;;;11.00;99.90;;;;;;5029117;28;20104;-78
2022/11/14 12:55:24;;;;;;;3.55;1.80;;;11.00;99.90;;;;;;5027239;28;20093;-80
2022/11/14 12:58:35;;;;;;;3.38;1.30;;;11.00;99.90;;;;;;5029911;28;20021;-79
2022/11/14 13:01:12;;;;;;;1.98;1.38;;;11.20;99.90;;;;;;5010865;28;20032;-79
2022/11/14 13:04:19;;;;;;;1.85;1.23;;;11.20;99.90;;;;;;5026216;28;20034;-78
2022/11/14 13:07:15;;;;;;;3.70;1.50;;;11.30;99.90;;;;;;4989692;28;20109;-77
2022/11/14 13:10:11;;;;;;;3.28;1.52;;;11.30;99.90;;;;;;5030158;28;20037;-77
2022/11/14 13:24:08;;;;;;;2.70;1.52;;;11.50;99.90;;;;;;5017928;28;20137;-78
2022/11/14 13:26:34;;;;;;;1.65;1.20;;;11.50;99.90;;;;;;5023034;28;20648;-77
2022/11/14 13:29:00;;;;;;;7.68;1.40;;;11.50;99.90;;;;;;5010593;28;20409;-77
2022/11/14 13:31:34;;;;;;;3.30;2.03;;;11.40;99.90;;;;;;5023358;28;20083;-75